createdAt,value
2019-05-22T00:00:41.035Z,13.97
2019-05-22T00:05:38.301Z,12.93
2019-05-22T00:10:34.523Z,11.93
2019-05-22T00:15:30.894Z,13.17
2019-05-22T00:20:27.361Z,12.50
2019-05-22T00:25:24.959Z,13.13
2019-05-22T00:30:20.797Z,12.50
2019-05-22T00:35:16.581Z,13.70
2019-05-22T00:40:14.847Z,13.17
2019-05-22T00:45:13.851Z,13.20
2019-05-22T00:50:10.344Z,14.70
2019-05-22T00:55:07.587Z,15.70
2019-05-22T01:00:05.389Z,13.10
2019-05-22T01:05:00.436Z,12.00
2019-05-22T01:09:59.892Z,12.23
2019-05-22T01:14:54.587Z,11.70
2019-05-22T01:19:54.754Z,10.60
2019-05-22T01:24:54.078Z,14.47
2019-05-22T01:29:50.517Z,14.97
2019-05-22T01:34:45.854Z,14.47
2019-05-22T01:39:52.529Z,14.63
2019-05-22T01:45:00.643Z,14.13
2019-05-22T01:49:54.302Z,15.17
2019-05-22T01:54:50.213Z,14.97
2019-05-22T01:59:45.369Z,17.47
2019-05-22T02:04:40.378Z,17.70
2019-05-22T02:09:40.954Z,18.97
2019-05-22T02:14:38.597Z,19.93
2019-05-22T02:19:33.821Z,17.87
2019-05-22T02:24:28.974Z,19.20
2019-05-22T02:29:24.184Z,20.00
2019-05-22T02:34:19.772Z,19.20
2019-05-22T02:39:28.673Z,16.67
2019-05-22T02:44:25.393Z,18.40
2019-05-22T02:49:21.026Z,19.50
2019-05-22T02:54:16.488Z,17.00
2019-05-22T02:59:13.605Z,18.03
2019-05-22T03:04:09.997Z,16.37
2019-05-22T03:09:13.286Z,16.80
2019-05-22T03:14:12.193Z,17.57
2019-05-22T03:19:09.205Z,17.53
2019-05-22T03:24:05.004Z,21.60
2019-05-22T03:28:59.617Z,20.43
2019-05-22T03:33:54.458Z,19.57
2019-05-22T03:38:49.550Z,19.90
2019-05-22T03:43:48.794Z,18.87
2019-05-22T03:48:43.479Z,20.23
2019-05-22T03:53:41.049Z,18.93
2019-05-22T03:58:36.599Z,18.13
2019-05-22T04:03:31.614Z,16.57
2019-05-22T04:08:27.598Z,19.33
2019-05-22T04:13:22.640Z,18.17
2019-05-22T04:18:22.753Z,20.10
2019-05-22T04:23:16.701Z,19.20
2019-05-22T04:28:11.569Z,20.67
2019-05-22T04:33:07.137Z,19.33
2019-05-22T04:38:01.892Z,19.87
2019-05-22T04:43:00.183Z,20.43
2019-05-22T04:48:01.552Z,18.87
2019-05-22T04:52:56.961Z,18.50
2019-05-22T04:57:53.184Z,20.77
2019-05-22T05:02:48.321Z,19.83
2019-05-22T05:07:44.215Z,19.53
2019-05-22T05:12:40.431Z,14.10
2019-05-22T05:17:36.744Z,21.53
2019-05-22T05:22:47.106Z,19.00
2019-05-22T05:27:42.369Z,20.03
2019-05-22T05:32:37.532Z,20.70
2019-05-22T05:37:33.115Z,19.23
2019-05-22T05:42:28.667Z,21.83
2019-05-22T05:47:24.633Z,22.23
2019-05-22T05:52:20.619Z,20.23
2019-05-22T05:57:38.023Z,20.93
2019-05-22T06:02:33.707Z,20.47
2019-05-22T06:07:29.247Z,17.13
2019-05-22T06:12:26.250Z,18.30
2019-05-22T06:17:45.207Z,18.17
2019-05-22T06:22:42.104Z,16.00
2019-05-22T06:27:39.140Z,14.87
2019-05-22T06:33:08.601Z,16.83
2019-05-22T06:38:37.729Z,16.77
2019-05-22T06:43:37.994Z,19.40
2019-05-22T06:48:32.859Z,14.90
2019-05-22T06:53:28.599Z,14.87
2019-05-22T06:58:23.383Z,14.07
2019-05-22T07:03:21.492Z,15.53
2019-05-22T07:08:17.160Z,17.77
2019-05-22T07:13:14.868Z,13.37
2019-05-22T07:18:13.171Z,14.73
2019-05-22T07:23:16.816Z,15.67
2019-05-22T07:28:15.271Z,12.17
2019-05-22T07:33:12.401Z,16.57
2019-05-22T07:38:18.129Z,13.50
2019-05-22T07:43:13.585Z,11.00
2019-05-22T07:48:10.237Z,10.97
2019-05-22T07:53:11.000Z,11.17
2019-05-22T07:58:11.055Z,10.93
2019-05-22T08:03:08.127Z,12.50
2019-05-22T08:08:04.329Z,10.57
2019-05-22T08:12:59.076Z,10.40
2019-05-22T08:17:53.785Z,10.27
2019-05-22T08:22:51.896Z,12.13
2019-05-22T08:27:54.710Z,11.00
2019-05-22T08:32:56.729Z,10.63
2019-05-22T08:37:58.010Z,8.97
2019-05-22T08:42:58.724Z,8.30
2019-05-22T08:47:59.839Z,9.57
2019-05-22T08:52:59.542Z,10.90
2019-05-22T08:58:00.025Z,8.80
2019-05-22T09:03:03.264Z,9.53
2019-05-22T09:07:58.874Z,8.03
2019-05-22T09:12:54.084Z,10.23
2019-05-22T09:17:49.151Z,6.63
2019-05-22T09:22:46.659Z,7.27
2019-05-22T09:27:47.254Z,6.37
2019-05-22T09:32:42.540Z,6.57
2019-05-22T09:37:44.953Z,6.10
2019-05-22T09:42:40.918Z,7.37
2019-05-22T09:47:36.821Z,6.43
2019-05-22T09:52:31.976Z,5.57
2019-05-22T09:57:26.730Z,7.15
2019-05-22T10:02:21.931Z,6.20
2019-05-22T10:07:16.766Z,6.37
2019-05-22T10:12:12.101Z,7.05
2019-05-22T10:17:09.010Z,6.30
2019-05-22T10:22:05.715Z,6.90
2019-05-22T10:27:00.307Z,5.75
2019-05-22T10:31:55.045Z,5.75
2019-05-22T10:36:50.922Z,5.97
2019-05-22T10:41:45.892Z,6.50
2019-05-22T10:46:40.999Z,5.42
2019-05-22T10:51:35.915Z,7.62
2019-05-22T10:56:31.135Z,5.47
2019-05-22T11:01:25.885Z,4.37
2019-05-22T11:06:21.736Z,4.22
2019-05-22T11:11:17.973Z,5.00
2019-05-22T11:16:13.979Z,4.15
2019-05-22T11:21:10.824Z,4.67
2019-05-22T11:26:07.386Z,3.90
2019-05-22T11:31:04.377Z,5.28
2019-05-22T11:35:59.162Z,5.60
2019-05-22T11:40:54.305Z,4.10
2019-05-22T11:45:49.424Z,4.20
2019-05-22T11:50:46.314Z,4.33
2019-05-22T11:55:45.583Z,5.90
2019-05-22T12:00:37.739Z,7.28
2019-05-22T12:05:32.826Z,6.30
2019-05-22T12:10:28.038Z,7.60
2019-05-22T12:15:27.892Z,9.00
2019-05-22T12:20:23.595Z,11.80
2019-05-22T12:25:19.978Z,7.75
2019-05-22T12:30:17.685Z,7.97
2019-05-22T12:35:15.767Z,7.60
2019-05-22T12:40:15.692Z,7.85
2019-05-22T12:45:12.578Z,7.62
2019-05-22T12:50:10.698Z,6.50
2019-05-22T12:55:08.014Z,5.72
2019-05-22T13:00:03.681Z,8.65
2019-05-22T13:05:00.412Z,6.20
2019-05-22T13:09:55.156Z,5.60
2019-05-22T13:14:49.998Z,5.70
2019-05-22T13:19:46.727Z,5.62
2019-05-22T13:24:43.996Z,7.12
2019-05-22T13:29:41.104Z,9.63
2019-05-22T13:34:38.021Z,9.43
2019-05-22T13:39:32.967Z,7.00
2019-05-22T13:44:29.852Z,11.83
2019-05-22T13:49:24.622Z,28.83
2019-05-22T13:54:27.861Z,28.50
2019-05-22T13:59:26.570Z,9.20
2019-05-22T14:04:26.505Z,18.93
2019-05-22T14:09:27.576Z,13.73
2019-05-22T14:14:37.335Z,13.33
2019-05-22T14:19:38.763Z,9.48
2019-05-22T14:24:39.391Z,12.20
2019-05-22T14:29:40.616Z,7.77
2019-05-22T14:34:41.094Z,9.93
2019-05-22T14:39:42.234Z,9.87
2019-05-22T14:44:37.653Z,5.47
2019-05-22T14:49:32.493Z,6.33
2019-05-22T14:54:27.633Z,8.00
2019-05-22T14:59:22.892Z,5.47
2019-05-22T15:04:18.517Z,6.37
2019-05-22T15:09:14.141Z,5.43
2019-05-22T15:14:09.094Z,5.50
2019-05-22T15:19:09.324Z,6.20
2019-05-22T15:24:08.383Z,5.50
2019-05-22T15:29:03.199Z,5.40
2019-05-22T15:33:59.259Z,5.27
2019-05-22T15:38:55.599Z,6.30
2019-05-22T15:43:53.521Z,5.37
2019-05-22T15:48:50.286Z,6.47
2019-05-22T15:53:47.721Z,6.93
2019-05-22T15:58:47.035Z,6.70
2019-05-22T16:03:42.520Z,6.83
2019-05-22T16:08:37.555Z,6.27
2019-05-22T16:13:35.059Z,7.30
2019-05-22T16:18:33.064Z,6.30
2019-05-22T16:23:30.316Z,6.23
2019-05-22T16:28:25.610Z,7.37
2019-05-22T16:33:21.758Z,8.57
2019-05-22T16:38:16.826Z,6.20
2019-05-22T16:43:11.517Z,7.97
2019-05-22T16:48:08.749Z,6.67
2019-05-22T16:53:08.189Z,6.33
2019-05-22T16:58:03.623Z,7.80
2019-05-22T17:02:59.690Z,9.77
2019-05-22T17:07:54.658Z,6.10
2019-05-22T17:12:52.093Z,7.23
2019-05-22T17:17:48.794Z,8.27
2019-05-22T17:22:44.176Z,8.70
2019-05-22T17:27:39.806Z,5.73
2019-05-22T17:32:35.392Z,5.20
2019-05-22T17:37:31.302Z,6.67
2019-05-22T17:42:28.433Z,6.20
2019-05-22T17:47:26.440Z,4.87
2019-05-22T17:52:23.954Z,6.00
2019-05-22T17:57:20.264Z,7.60
2019-05-22T18:02:17.292Z,7.53
2019-05-22T18:07:12.479Z,5.30
2019-05-22T18:12:08.998Z,9.40
2019-05-22T18:17:04.544Z,9.00
2019-05-22T18:21:59.393Z,5.27
2019-05-22T18:26:53.999Z,6.87
2019-05-22T18:31:48.744Z,7.53
2019-05-22T18:36:43.378Z,7.23
2019-05-22T18:41:37.970Z,6.60
2019-05-22T18:46:32.619Z,8.27
2019-05-22T18:51:27.353Z,6.63
2019-05-22T18:56:21.934Z,6.60
2019-05-22T19:01:16.727Z,7.10
2019-05-22T19:06:11.599Z,7.63
2019-05-22T19:11:06.744Z,6.63
2019-05-22T19:16:01.386Z,6.97
2019-05-22T19:20:56.361Z,5.83
2019-05-22T19:25:51.091Z,5.00
2019-05-22T19:30:45.669Z,4.60
2019-05-22T19:35:40.399Z,5.13
2019-05-22T19:40:36.600Z,6.63
2019-05-22T19:45:32.324Z,6.57
2019-05-22T19:50:29.297Z,7.13
2019-05-22T19:55:26.659Z,5.77
2019-05-22T20:00:23.235Z,5.50
2019-05-22T20:05:19.183Z,8.93
2019-05-22T20:10:15.556Z,6.17
2019-05-22T20:15:12.705Z,9.80
2019-05-22T20:20:11.722Z,10.00
2019-05-22T20:25:08.973Z,8.47
2019-05-22T20:30:06.211Z,7.23
2019-05-22T20:35:02.077Z,6.97
2019-05-22T20:39:56.755Z,6.67
2019-05-22T20:44:52.169Z,6.13
2019-05-22T20:49:47.961Z,7.53
2019-05-22T20:54:43.453Z,7.90
2019-05-22T20:59:38.783Z,8.10
2019-05-22T21:04:35.383Z,8.17
2019-05-22T21:09:31.733Z,7.80
2019-05-22T21:14:26.808Z,9.20
2019-05-22T21:19:23.711Z,5.07
2019-05-22T21:24:19.282Z,4.90
2019-05-22T21:29:14.585Z,4.40
2019-05-22T21:34:09.505Z,3.97
2019-05-22T21:39:04.645Z,3.93
2019-05-22T21:43:59.390Z,7.03
2019-05-22T21:48:56.918Z,5.00
2019-05-22T21:53:51.511Z,5.20
2019-05-22T21:58:46.604Z,6.23
2019-05-22T22:03:51.696Z,5.63
2019-05-22T22:08:47.257Z,6.13
2019-05-22T22:13:43.789Z,8.20
2019-05-22T22:18:40.016Z,6.83
2019-05-22T22:23:36.242Z,5.97
2019-05-22T22:28:32.398Z,5.90
2019-05-22T22:33:32.485Z,6.97
2019-05-22T22:38:28.979Z,5.90
2019-05-22T22:43:28.261Z,8.27
2019-05-22T22:48:33.471Z,7.37
2019-05-22T22:53:28.765Z,5.80
2019-05-22T22:58:23.853Z,7.53
2019-05-22T23:03:26.603Z,5.17
2019-05-22T23:08:29.629Z,4.20
2019-05-22T23:13:25.556Z,9.13
2019-05-22T23:18:45.339Z,8.57
2019-05-22T23:23:38.887Z,6.60
2019-05-22T23:28:35.138Z,4.93
2019-05-22T23:33:32.335Z,5.60
2019-05-22T23:38:28.170Z,5.13
2019-05-22T23:43:23.385Z,6.20
2019-05-22T23:48:19.989Z,5.13
2019-05-22T23:53:16.673Z,4.83
2019-05-22T23:58:13.920Z,6.87
